createdAt,value
2022-10-20T00:00:48.729Z,11.05
2022-10-20T00:03:51.665Z,9.77
2022-10-20T00:06:53.656Z,10.80
2022-10-20T00:09:55.727Z,6.55
2022-10-20T00:12:57.757Z,10.05
2022-10-20T00:16:00.456Z,9.27
2022-10-20T00:19:02.542Z,16.73
2022-10-20T00:22:04.864Z,11.23
2022-10-20T00:25:07.304Z,10.05
2022-10-20T00:28:09.595Z,12.73
2022-10-20T00:31:13.167Z,6.50
2022-10-20T00:34:15.218Z,13.70
2022-10-20T00:37:17.434Z,9.23
2022-10-20T00:40:20.715Z,8.18
2022-10-20T00:43:23.479Z,13.57
2022-10-20T00:46:45.862Z,9.05
2022-10-20T00:49:50.171Z,11.85
2022-10-20T00:52:53.750Z,7.35
2022-10-20T00:55:58.489Z,11.93
2022-10-20T00:59:02.758Z,5.85
2022-10-20T01:02:07.108Z,7.45
2022-10-20T01:05:09.511Z,4.53
2022-10-20T01:08:11.550Z,10.23
2022-10-20T01:11:50.062Z,6.45
2022-10-20T01:15:03.111Z,13.95
2022-10-20T01:18:13.423Z,8.07
2022-10-20T01:21:51.900Z,9.32
2022-10-20T01:25:25.885Z,6.60
2022-10-20T01:28:30.975Z,9.13
2022-10-20T01:32:16.977Z,6.07
2022-10-20T01:35:42.784Z,6.70
2022-10-20T01:38:51.063Z,4.20
2022-10-20T01:41:58.995Z,8.65
2022-10-20T01:45:05.735Z,7.32
2022-10-20T01:48:10.338Z,10.55
2022-10-20T01:51:13.361Z,5.25
2022-10-20T01:54:24.190Z,7.57
2022-10-20T01:57:26.507Z,13.63
2022-10-20T02:00:28.812Z,21.20
2022-10-20T02:03:53.334Z,6.13
2022-10-20T02:07:06.777Z,7.68
2022-10-20T02:10:17.186Z,12.50
2022-10-20T02:13:21.269Z,8.00
2022-10-20T02:16:34.610Z,12.38
2022-10-20T02:19:41.796Z,10.05
2022-10-20T02:22:44.334Z,15.20
2022-10-20T02:25:53.147Z,12.07
2022-10-20T02:29:03.678Z,16.38
2022-10-20T02:32:07.977Z,11.13
2022-10-20T02:35:15.462Z,7.90
2022-10-20T02:38:17.982Z,8.32
2022-10-20T02:41:20.048Z,14.05
2022-10-20T02:44:23.023Z,9.38
2022-10-20T02:47:25.123Z,8.40
2022-10-20T02:50:27.251Z,13.27
2022-10-20T02:53:29.288Z,11.45
2022-10-20T02:56:31.405Z,8.20
2022-10-20T02:59:33.732Z,14.60
2022-10-20T03:02:35.795Z,20.75
2022-10-20T03:05:44.497Z,15.35
2022-10-20T03:08:46.574Z,17.38
2022-10-20T03:11:48.688Z,16.45
2022-10-20T03:14:51.080Z,15.75
2022-10-20T03:17:53.089Z,26.27
2022-10-20T03:20:55.602Z,18.45
2022-10-20T03:23:57.632Z,29.33
2022-10-20T03:26:59.642Z,12.52
2022-10-20T03:30:01.614Z,13.93
2022-10-20T03:33:04.156Z,13.40
2022-10-20T03:36:07.912Z,14.32
2022-10-20T03:39:09.979Z,16.95
2022-10-20T03:42:12.040Z,12.50
2022-10-20T03:45:17.781Z,27.95
2022-10-20T03:48:20.944Z,13.85
2022-10-20T03:51:28.084Z,13.52
2022-10-20T03:54:30.196Z,10.95
2022-10-20T03:57:32.306Z,10.40
2022-10-20T04:00:34.384Z,14.30
2022-10-20T04:03:36.487Z,15.80
2022-10-20T04:06:38.821Z,19.38
2022-10-20T04:09:41.059Z,26.95
2022-10-20T04:12:43.485Z,16.25
2022-10-20T04:15:51.852Z,15.77
2022-10-20T04:18:57.903Z,19.77
2022-10-20T04:21:59.979Z,21.40
2022-10-20T04:25:08.501Z,16.52
2022-10-20T04:28:10.911Z,28.60
2022-10-20T04:31:13.184Z,23.27
2022-10-20T04:34:15.993Z,21.33
2022-10-20T04:37:18.036Z,19.92
2022-10-20T04:40:20.100Z,23.05
2022-10-20T04:43:23.283Z,28.75
2022-10-20T04:46:26.860Z,32.37
2022-10-20T04:49:28.974Z,19.08
2022-10-20T04:52:31.013Z,24.17
2022-10-20T04:55:33.033Z,26.25
2022-10-20T04:58:35.637Z,18.27
2022-10-20T05:01:37.758Z,25.60
2022-10-20T05:04:40.583Z,24.50
2022-10-20T05:07:42.786Z,20.30
2022-10-20T05:10:44.834Z,27.50
2022-10-20T05:13:47.268Z,24.00
2022-10-20T05:16:49.300Z,21.02
2022-10-20T05:19:51.367Z,43.20
2022-10-20T05:22:53.833Z,37.10
2022-10-20T05:25:55.987Z,29.10
2022-10-20T05:28:57.997Z,27.05
2022-10-20T05:32:00.057Z,22.33
2022-10-20T05:35:02.106Z,25.80
2022-10-20T05:38:04.198Z,27.15
2022-10-20T05:41:09.612Z,21.33
2022-10-20T05:44:13.592Z,31.30
2022-10-20T05:47:15.639Z,39.80
2022-10-20T05:50:17.772Z,22.60
2022-10-20T05:53:19.920Z,24.55
2022-10-20T05:56:22.978Z,20.35
2022-10-20T05:59:25.111Z,27.92
2022-10-20T06:02:27.218Z,24.33
2022-10-20T06:05:31.069Z,26.10
2022-10-20T06:08:34.138Z,29.73
2022-10-20T06:11:39.279Z,30.88
2022-10-20T06:14:41.868Z,24.45
2022-10-20T06:17:46.448Z,26.92
2022-10-20T06:23:53.881Z,24.60
2022-10-20T06:26:55.939Z,21.80
2022-10-20T06:29:57.961Z,25.90
2022-10-20T06:33:02.375Z,26.15
2022-10-20T06:39:08.906Z,27.40
2022-10-20T06:42:12.451Z,29.33
2022-10-20T06:45:16.986Z,27.05
2022-10-20T06:48:20.050Z,28.33
2022-10-20T06:51:23.408Z,24.93
2022-10-20T06:54:25.463Z,14.57
2022-10-20T06:57:27.535Z,18.58
2022-10-20T07:03:35.068Z,14.07
2022-10-20T07:06:39.557Z,23.83
2022-10-20T07:12:43.548Z,15.70
2022-10-20T07:15:46.753Z,14.15
2022-10-20T07:18:49.526Z,10.00
2022-10-20T07:21:51.625Z,16.10
2022-10-20T07:24:54.167Z,11.45
2022-10-20T07:27:56.215Z,14.23
2022-10-20T07:31:13.152Z,37.78
2022-10-20T07:34:25.616Z,13.95
2022-10-20T07:37:29.037Z,15.13
2022-10-20T07:40:31.498Z,22.55
2022-10-20T07:43:33.587Z,13.82
2022-10-20T07:46:36.602Z,18.83
2022-10-20T07:49:45.906Z,13.98
2022-10-20T07:52:52.517Z,50.53
2022-10-20T07:55:54.532Z,35.35
2022-10-20T07:58:56.871Z,46.92
2022-10-20T08:02:00.045Z,32.13
2022-10-20T08:05:05.135Z,16.25
2022-10-20T08:08:07.248Z,33.33
2022-10-20T08:11:10.510Z,18.80
2022-10-20T08:14:12.925Z,26.83
2022-10-20T08:17:15.004Z,24.20
2022-10-20T08:20:21.408Z,36.78
2022-10-20T08:23:25.733Z,23.55
2022-10-20T08:26:27.788Z,35.33
2022-10-20T08:29:30.272Z,7.93
2022-10-20T08:32:32.510Z,33.22
2022-10-20T08:35:35.175Z,97.10
2022-10-20T08:38:38.528Z,45.92
2022-10-20T08:45:07.319Z,21.00
2022-10-20T08:48:16.958Z,11.90
2022-10-20T08:51:30.438Z,17.50
2022-10-20T08:54:35.189Z,10.20
2022-10-20T08:57:37.329Z,14.50
2022-10-20T09:00:40.419Z,19.98
2022-10-20T09:03:42.879Z,11.45
2022-10-20T09:06:49.142Z,19.85
2022-10-20T09:09:51.567Z,10.60
2022-10-20T09:12:54.213Z,12.80
2022-10-20T09:16:07.156Z,23.77
2022-10-20T09:19:20.851Z,21.13
2022-10-20T09:22:30.847Z,17.00
2022-10-20T09:25:36.076Z,16.45
2022-10-20T09:29:02.008Z,10.80
2022-10-20T09:32:15.404Z,19.10
2022-10-20T09:35:35.949Z,18.90
2022-10-20T09:38:47.594Z,18.95
2022-10-20T09:41:58.898Z,9.27
2022-10-20T09:45:06.082Z,13.75
2022-10-20T09:48:22.861Z,15.23
2022-10-20T09:51:28.305Z,14.20
2022-10-20T09:54:30.890Z,14.32
2022-10-20T09:57:33.829Z,6.78
2022-10-20T10:00:39.146Z,9.40
2022-10-20T10:03:46.886Z,8.73
2022-10-20T10:06:48.943Z,11.00
2022-10-20T10:09:58.882Z,10.40
2022-10-20T10:13:04.010Z,10.82
2022-10-20T10:16:11.938Z,7.32
2022-10-20T10:19:19.529Z,12.10
2022-10-20T10:22:21.780Z,9.13
2022-10-20T10:25:29.705Z,9.43
2022-10-20T10:28:39.991Z,6.50
2022-10-20T10:31:51.791Z,3.50
2022-10-20T10:35:01.403Z,14.68
2022-10-20T10:38:03.585Z,18.58
2022-10-20T10:41:26.722Z,10.98
2022-10-20T10:44:56.645Z,5.45
2022-10-20T10:48:07.291Z,10.57
2022-10-20T10:51:27.014Z,4.45
2022-10-20T10:54:48.739Z,1.98
2022-10-20T10:58:21.553Z,5.40
2022-10-20T11:01:28.865Z,3.22
2022-10-20T11:05:08.565Z,7.55
2022-10-20T11:08:19.277Z,4.78
2022-10-20T11:11:24.411Z,10.25
2022-10-20T11:14:31.201Z,3.88
2022-10-20T11:17:36.632Z,8.32
2022-10-20T11:20:49.129Z,6.95
2022-10-20T11:24:07.991Z,3.65
2022-10-20T11:27:13.777Z,5.30
2022-10-20T11:30:23.007Z,4.45
2022-10-20T11:33:31.615Z,4.68
2022-10-20T11:36:45.363Z,6.07
2022-10-20T11:40:28.511Z,8.48
2022-10-20T11:43:47.799Z,8.48
2022-10-20T11:46:52.149Z,6.68
2022-10-20T11:53:32.849Z,13.27
2022-10-20T11:57:01.165Z,15.68
2022-10-20T12:00:24.187Z,10.52
2022-10-20T12:03:56.657Z,11.45
2022-10-20T12:06:59.610Z,6.88
2022-10-20T12:10:38.369Z,8.60
2022-10-20T12:13:55.782Z,11.30
2022-10-20T12:17:36.677Z,6.32
2022-10-20T12:20:38.693Z,10.80
2022-10-20T12:23:43.856Z,8.52
2022-10-20T12:27:06.995Z,5.88
2022-10-20T12:30:39.641Z,10.93
2022-10-20T12:33:53.438Z,13.00
2022-10-20T12:37:16.219Z,13.23
2022-10-20T12:40:40.519Z,11.38
2022-10-20T12:43:51.100Z,17.23
2022-10-20T12:47:06.068Z,20.70
2022-10-20T12:50:41.294Z,11.50
2022-10-20T12:53:43.722Z,16.45
2022-10-20T12:56:46.174Z,19.85
2022-10-20T12:59:48.258Z,20.77
2022-10-20T13:02:57.911Z,15.60
2022-10-20T13:06:00.115Z,22.85
2022-10-20T13:09:06.110Z,14.43
2022-10-20T13:12:29.071Z,16.95
2022-10-20T13:15:42.779Z,22.40
2022-10-20T13:18:50.133Z,14.30
2022-10-20T13:21:52.512Z,21.33
2022-10-20T13:24:58.950Z,13.35
2022-10-20T13:28:16.112Z,21.33
2022-10-20T13:31:34.477Z,23.10
2022-10-20T13:34:49.274Z,20.55
2022-10-20T13:37:54.278Z,20.35
2022-10-20T13:41:16.705Z,24.10
2022-10-20T13:44:31.396Z,23.27
2022-10-20T13:47:50.394Z,18.00
2022-10-20T13:51:18.374Z,15.90
2022-10-20T13:54:32.658Z,21.25
2022-10-20T13:57:56.355Z,22.67
2022-10-20T14:01:06.369Z,30.38
2022-10-20T14:04:30.372Z,23.92
2022-10-20T14:07:40.969Z,27.83
2022-10-20T14:11:08.531Z,20.05
2022-10-20T14:14:15.972Z,18.17
2022-10-20T14:17:25.318Z,17.33
2022-10-20T14:20:29.363Z,24.77
2022-10-20T14:23:39.899Z,26.55
2022-10-20T14:26:46.837Z,21.27
2022-10-20T14:29:50.190Z,20.35
2022-10-20T14:32:52.587Z,23.17
2022-10-20T14:35:57.384Z,24.50
2022-10-20T14:39:01.226Z,24.35
2022-10-20T14:42:35.501Z,31.52
2022-10-20T14:45:37.508Z,26.73
2022-10-20T14:48:46.266Z,29.88
2022-10-20T14:52:21.862Z,36.30
2022-10-20T14:55:32.623Z,23.95
2022-10-20T14:58:54.613Z,25.42
2022-10-20T15:02:09.775Z,21.90
2022-10-20T15:05:31.467Z,24.23
2022-10-20T15:08:33.719Z,34.83
2022-10-20T15:11:39.323Z,24.17
2022-10-20T15:14:44.080Z,30.45
2022-10-20T15:18:10.555Z,19.52
2022-10-20T15:21:13.758Z,21.15
2022-10-20T15:24:16.258Z,15.20
2022-10-20T15:27:18.587Z,29.50
2022-10-20T15:30:22.694Z,28.98
2022-10-20T15:33:25.265Z,38.08
2022-10-20T15:36:33.062Z,21.10
2022-10-20T15:39:35.756Z,19.73
2022-10-20T15:42:38.304Z,19.77
2022-10-20T15:45:45.752Z,23.63
2022-10-20T15:48:50.342Z,26.48
2022-10-20T15:51:52.475Z,27.38
2022-10-20T15:54:54.520Z,24.27
2022-10-20T15:57:57.180Z,27.52
2022-10-20T16:01:01.893Z,33.90
2022-10-20T16:04:19.261Z,31.50
2022-10-20T16:07:21.262Z,24.85
2022-10-20T16:10:25.660Z,15.02
2022-10-20T16:13:27.666Z,30.50
2022-10-20T16:16:29.774Z,10.32
2022-10-20T16:19:31.823Z,15.23
2022-10-20T16:22:35.255Z,15.25
2022-10-20T16:25:40.762Z,14.90
2022-10-20T16:28:43.120Z,9.43
2022-10-20T16:31:45.441Z,12.93
2022-10-20T16:34:49.041Z,11.45
2022-10-20T16:37:51.088Z,18.02
2022-10-20T16:41:01.042Z,13.88
2022-10-20T16:44:06.078Z,15.80
2022-10-20T16:47:08.493Z,11.23
2022-10-20T16:50:10.541Z,14.55
2022-10-20T16:53:12.809Z,15.25
2022-10-20T16:56:18.182Z,11.02
2022-10-20T16:59:22.900Z,16.42
2022-10-20T17:02:24.952Z,13.25
2022-10-20T17:05:27.043Z,10.75
2022-10-20T17:08:30.570Z,19.23
2022-10-20T17:11:33.602Z,21.40
2022-10-20T17:14:35.783Z,11.85
2022-10-20T17:17:38.430Z,16.10
2022-10-20T17:20:40.683Z,12.02
2022-10-20T17:23:44.785Z,14.25
2022-10-20T17:26:46.760Z,21.92
2022-10-20T17:29:48.836Z,27.50
2022-10-20T17:32:51.099Z,18.45
2022-10-20T17:35:54.717Z,26.98
2022-10-20T17:39:06.279Z,14.90
2022-10-20T17:42:08.316Z,27.05
2022-10-20T17:45:10.713Z,16.63
2022-10-20T17:48:14.296Z,25.20
2022-10-20T17:51:20.412Z,32.13
2022-10-20T17:54:23.010Z,27.20
2022-10-20T17:57:25.126Z,23.27
2022-10-20T18:00:51.020Z,28.98
2022-10-20T18:03:53.957Z,20.15
2022-10-20T18:06:55.987Z,33.35
2022-10-20T18:09:58.068Z,24.10
2022-10-20T18:13:00.083Z,31.40
2022-10-20T18:16:11.814Z,46.10
2022-10-20T18:19:16.846Z,27.85
2022-10-20T18:22:19.055Z,25.35
2022-10-20T18:25:21.090Z,25.58
2022-10-20T18:28:24.334Z,26.65
2022-10-20T18:31:30.599Z,31.67
2022-10-20T18:34:34.287Z,30.08
2022-10-20T18:37:36.576Z,44.35
2022-10-20T18:40:39.066Z,30.08
2022-10-20T18:43:41.499Z,33.80
2022-10-20T18:46:44.131Z,41.47
2022-10-20T18:49:46.235Z,27.27
2022-10-20T18:52:48.248Z,45.60
2022-10-20T18:56:18.591Z,39.58
2022-10-20T18:59:21.238Z,36.00
2022-10-20T19:02:24.302Z,35.28
2022-10-20T19:05:26.271Z,30.13
2022-10-20T19:08:30.193Z,40.50
2022-10-20T19:11:34.389Z,36.97
2022-10-20T19:14:36.385Z,47.75
2022-10-20T19:17:38.508Z,37.25
2022-10-20T19:20:41.530Z,39.72
2022-10-20T19:23:50.099Z,36.75
2022-10-20T19:27:21.317Z,34.17
2022-10-20T19:30:17.623Z,47.95
2022-10-20T19:33:19.758Z,41.80
2022-10-20T19:36:24.475Z,41.40
2022-10-20T19:39:33.143Z,29.95
2022-10-20T19:42:39.007Z,40.53
2022-10-20T19:45:42.863Z,46.97
2022-10-20T19:48:47.932Z,31.83
2022-10-20T19:51:50.537Z,42.75
2022-10-20T19:54:52.658Z,29.85
2022-10-20T19:57:54.668Z,45.85
2022-10-20T20:00:58.648Z,42.97
2022-10-20T20:04:00.788Z,40.13
2022-10-20T20:07:02.908Z,43.33
2022-10-20T20:10:05.467Z,35.95
2022-10-20T20:13:07.527Z,41.88
2022-10-20T20:16:09.705Z,35.60
2022-10-20T20:19:12.862Z,37.88
2022-10-20T20:22:15.095Z,33.85
2022-10-20T20:25:17.208Z,41.42
2022-10-20T20:28:19.371Z,38.65
2022-10-20T20:31:22.205Z,42.30
2022-10-20T20:34:24.445Z,43.78
2022-10-20T20:37:26.428Z,38.53
2022-10-20T20:40:28.606Z,34.88
2022-10-20T20:43:30.915Z,43.28
2022-10-20T20:46:34.386Z,33.53
2022-10-20T20:49:37.590Z,31.90
2022-10-20T20:52:41.691Z,38.88
2022-10-20T20:56:12.794Z,35.03
2022-10-20T20:59:15.351Z,40.63
2022-10-20T21:02:18.866Z,50.08
2022-10-20T21:05:21.416Z,47.13
2022-10-20T21:08:23.692Z,46.13
2022-10-20T21:11:27.507Z,44.13
2022-10-20T21:14:30.263Z,27.65
2022-10-20T21:17:32.337Z,37.72
2022-10-20T21:20:39.693Z,28.50
2022-10-20T21:23:44.509Z,22.92
2022-10-20T21:26:47.023Z,41.35
2022-10-20T21:29:49.082Z,41.15
2022-10-20T21:32:53.334Z,35.72
2022-10-20T21:36:07.263Z,26.08
2022-10-20T21:39:15.183Z,36.05
2022-10-20T21:42:17.523Z,27.83
2022-10-20T21:45:19.694Z,36.22
2022-10-20T21:48:21.799Z,30.27
2022-10-20T21:51:29.966Z,31.58
2022-10-20T21:54:32.023Z,35.75
2022-10-20T21:57:34.136Z,34.88
2022-10-20T22:00:36.425Z,35.10
2022-10-20T22:03:39.626Z,37.92
2022-10-20T22:06:43.066Z,32.05
2022-10-20T22:09:45.268Z,32.47
2022-10-20T22:12:48.123Z,27.45
2022-10-20T22:15:50.195Z,27.23
2022-10-20T22:19:06.915Z,34.70
2022-10-20T22:22:09.505Z,28.98
2022-10-20T22:25:11.576Z,32.25
2022-10-20T22:28:13.913Z,26.02
2022-10-20T22:31:18.072Z,28.33
2022-10-20T22:34:21.261Z,24.83
2022-10-20T22:37:24.719Z,27.58
2022-10-20T22:40:26.836Z,26.10
2022-10-20T22:43:30.507Z,20.63
2022-10-20T22:46:34.349Z,24.08
2022-10-20T22:49:39.944Z,23.10
2022-10-20T22:52:43.975Z,26.83
2022-10-20T22:55:46.565Z,30.08
2022-10-20T22:58:48.945Z,24.40
2022-10-20T23:01:51.063Z,20.00
2022-10-20T23:04:53.114Z,34.17
2022-10-20T23:07:55.166Z,26.80
2022-10-20T23:10:58.831Z,33.85
2022-10-20T23:14:00.883Z,35.08
2022-10-20T23:17:02.948Z,22.17
2022-10-20T23:20:06.455Z,23.52
2022-10-20T23:23:09.157Z,33.43
2022-10-20T23:26:11.563Z,34.60
2022-10-20T23:29:13.834Z,27.17
2022-10-20T23:32:16.102Z,23.17
2022-10-20T23:35:18.124Z,21.63
2022-10-20T23:38:20.184Z,28.60
2022-10-20T23:41:22.248Z,26.83
2022-10-20T23:44:24.334Z,32.58
2022-10-20T23:47:26.435Z,32.25
2022-10-20T23:50:28.408Z,27.30
2022-10-20T23:53:30.708Z,26.85
2022-10-20T23:56:32.815Z,36.28
2022-10-20T23:59:34.818Z,26.02
